sensor_id;sensor_type;location;lat;lon;timestamp;P1;durP1;ratioP1;P2;durP2;ratioP2
21769;SDS011;11046;49.558;8.674;2023-01-29T00:02:20;13.13;;;7.33;;
21769;SDS011;11046;49.558;8.674;2023-01-29T00:05:21;12.00;;;6.83;;
21769;SDS011;11046;49.558;8.674;2023-01-29T00:08:21;12.83;;;6.87;;
21769;SDS011;11046;49.558;8.674;2023-01-29T00:11:22;14.57;;;6.77;;
21769;SDS011;11046;49.558;8.674;2023-01-29T00:14:24;13.53;;;7.13;;
21769;SDS011;11046;49.558;8.674;2023-01-29T00:17:28;13.00;;;6.77;;
21769;SDS011;11046;49.558;8.674;2023-01-29T00:20:29;12.50;;;7.07;;
21769;SDS011;11046;49.558;8.674;2023-01-29T00:23:30;11.97;;;6.50;;
21769;SDS011;11046;49.558;8.674;2023-01-29T00:26:30;13.00;;;6.63;;
21769;SDS011;11046;49.558;8.674;2023-01-29T00:29:31;16.50;;;7.17;;
21769;SDS011;11046;49.558;8.674;2023-01-29T00:32:31;14.13;;;7.80;;
21769;SDS011;11046;49.558;8.674;2023-01-29T00:35:32;14.00;;;7.17;;
21769;SDS011;11046;49.558;8.674;2023-01-29T00:38:33;13.83;;;7.37;;
21769;SDS011;11046;49.558;8.674;2023-01-29T00:41:35;12.60;;;6.93;;
21769;SDS011;11046;49.558;8.674;2023-01-29T00:44:54;13.23;;;7.17;;
21769;SDS011;11046;49.558;8.674;2023-01-29T00:47:58;16.07;;;7.30;;
21769;SDS011;11046;49.558;8.674;2023-01-29T00:50:58;12.10;;;6.70;;
21769;SDS011;11046;49.558;8.674;2023-01-29T00:54:00;13.17;;;7.10;;
21769;SDS011;11046;49.558;8.674;2023-01-29T00:57:01;14.47;;;6.93;;
21769;SDS011;11046;49.558;8.674;2023-01-29T01:00:03;19.77;;;6.87;;
21769;SDS011;11046;49.558;8.674;2023-01-29T01:03:06;12.40;;;6.20;;
21769;SDS011;11046;49.558;8.674;2023-01-29T01:06:08;11.87;;;6.77;;
21769;SDS011;11046;49.558;8.674;2023-01-29T01:09:09;12.20;;;6.97;;
21769;SDS011;11046;49.558;8.674;2023-01-29T01:12:29;12.57;;;6.77;;
21769;SDS011;11046;49.558;8.674;2023-01-29T01:15:31;13.90;;;7.53;;
21769;SDS011;11046;49.558;8.674;2023-01-29T01:18:34;13.67;;;6.80;;
21769;SDS011;11046;49.558;8.674;2023-01-29T01:21:37;11.60;;;6.90;;
21769;SDS011;11046;49.558;8.674;2023-01-29T01:24:37;17.87;;;7.53;;
21769;SDS011;11046;49.558;8.674;2023-01-29T01:27:38;16.93;;;7.40;;
21769;SDS011;11046;49.558;8.674;2023-01-29T01:30:40;13.47;;;7.23;;
21769;SDS011;11046;49.558;8.674;2023-01-29T01:33:41;14.10;;;6.93;;
21769;SDS011;11046;49.558;8.674;2023-01-29T01:36:41;14.40;;;6.87;;
21769;SDS011;11046;49.558;8.674;2023-01-29T01:39:42;15.50;;;7.13;;
21769;SDS011;11046;49.558;8.674;2023-01-29T01:42:43;15.57;;;7.37;;
21769;SDS011;11046;49.558;8.674;2023-01-29T01:45:46;15.10;;;7.33;;
21769;SDS011;11046;49.558;8.674;2023-01-29T01:48:58;12.87;;;6.43;;
21769;SDS011;11046;49.558;8.674;2023-01-29T01:52:03;15.83;;;7.60;;
21769;SDS011;11046;49.558;8.674;2023-01-29T01:55:05;12.70;;;6.90;;
21769;SDS011;11046;49.558;8.674;2023-01-29T01:58:11;11.10;;;6.80;;
21769;SDS011;11046;49.558;8.674;2023-01-29T02:01:14;14.17;;;7.10;;
21769;SDS011;11046;49.558;8.674;2023-01-29T02:04:17;12.83;;;7.10;;
21769;SDS011;11046;49.558;8.674;2023-01-29T02:07:40;13.33;;;7.10;;
21769;SDS011;11046;49.558;8.674;2023-01-29T02:11:01;12.93;;;7.27;;
21769;SDS011;11046;49.558;8.674;2023-01-29T02:14:02;14.77;;;7.20;;
21769;SDS011;11046;49.558;8.674;2023-01-29T02:17:03;14.00;;;7.80;;
21769;SDS011;11046;49.558;8.674;2023-01-29T02:20:17;15.30;;;7.33;;
21769;SDS011;11046;49.558;8.674;2023-01-29T02:23:29;15.07;;;7.87;;
21769;SDS011;11046;49.558;8.674;2023-01-29T02:26:40;20.53;;;8.43;;
21769;SDS011;11046;49.558;8.674;2023-01-29T02:29:54;15.93;;;7.80;;
21769;SDS011;11046;49.558;8.674;2023-01-29T02:36:48;14.73;;;7.60;;
21769;SDS011;11046;49.558;8.674;2023-01-29T02:39:59;15.57;;;7.67;;
21769;SDS011;11046;49.558;8.674;2023-01-29T02:46:45;16.17;;;7.40;;
21769;SDS011;11046;49.558;8.674;2023-01-29T02:50:02;15.33;;;7.90;;
21769;SDS011;11046;49.558;8.674;2023-01-29T02:53:14;17.83;;;8.30;;
21769;SDS011;11046;49.558;8.674;2023-01-29T02:56:20;13.50;;;7.07;;
21769;SDS011;11046;49.558;8.674;2023-01-29T02:59:39;16.70;;;7.87;;
21769;SDS011;11046;49.558;8.674;2023-01-29T03:03:39;15.93;;;8.27;;
21769;SDS011;11046;49.558;8.674;2023-01-29T03:06:26;14.20;;;6.67;;
21769;SDS011;11046;49.558;8.674;2023-01-29T03:09:37;13.80;;;7.50;;
21769;SDS011;11046;49.558;8.674;2023-01-29T03:12:41;15.57;;;7.07;;
21769;SDS011;11046;49.558;8.674;2023-01-29T03:15:48;16.07;;;7.67;;
21769;SDS011;11046;49.558;8.674;2023-01-29T03:19:34;15.63;;;7.90;;
21769;SDS011;11046;49.558;8.674;2023-01-29T03:22:48;14.67;;;7.40;;
21769;SDS011;11046;49.558;8.674;2023-01-29T03:25:55;17.30;;;7.70;;
21769;SDS011;11046;49.558;8.674;2023-01-29T03:29:16;17.27;;;7.77;;
21769;SDS011;11046;49.558;8.674;2023-01-29T03:32:36;13.57;;;6.57;;
21769;SDS011;11046;49.558;8.674;2023-01-29T03:35:39;17.70;;;7.97;;
21769;SDS011;11046;49.558;8.674;2023-01-29T03:38:47;17.97;;;7.30;;
21769;SDS011;11046;49.558;8.674;2023-01-29T03:41:55;14.13;;;7.47;;
21769;SDS011;11046;49.558;8.674;2023-01-29T03:45:26;14.77;;;7.20;;
21769;SDS011;11046;49.558;8.674;2023-01-29T03:49:11;15.13;;;7.53;;
21769;SDS011;11046;49.558;8.674;2023-01-29T03:52:23;14.50;;;7.30;;
21769;SDS011;11046;49.558;8.674;2023-01-29T03:55:37;13.73;;;7.20;;
21769;SDS011;11046;49.558;8.674;2023-01-29T03:58:58;16.90;;;7.70;;
21769;SDS011;11046;49.558;8.674;2023-01-29T04:02:37;15.33;;;7.97;;
21769;SDS011;11046;49.558;8.674;2023-01-29T04:05:50;16.03;;;7.97;;
21769;SDS011;11046;49.558;8.674;2023-01-29T04:09:07;17.67;;;7.93;;
21769;SDS011;11046;49.558;8.674;2023-01-29T04:12:20;15.03;;;7.60;;
21769;SDS011;11046;49.558;8.674;2023-01-29T04:15:29;16.63;;;7.47;;
21769;SDS011;11046;49.558;8.674;2023-01-29T04:18:33;14.70;;;7.70;;
21769;SDS011;11046;49.558;8.674;2023-01-29T04:21:41;15.00;;;7.53;;
21769;SDS011;11046;49.558;8.674;2023-01-29T04:24:44;16.10;;;7.77;;
21769;SDS011;11046;49.558;8.674;2023-01-29T04:27:57;16.23;;;8.00;;
21769;SDS011;11046;49.558;8.674;2023-01-29T04:31:07;14.07;;;7.60;;
21769;SDS011;11046;49.558;8.674;2023-01-29T04:34:18;14.60;;;7.57;;
21769;SDS011;11046;49.558;8.674;2023-01-29T04:37:35;16.50;;;8.60;;
21769;SDS011;11046;49.558;8.674;2023-01-29T04:44:53;15.50;;;7.87;;
21769;SDS011;11046;49.558;8.674;2023-01-29T04:51:06;17.37;;;8.37;;
21769;SDS011;11046;49.558;8.674;2023-01-29T04:54:27;16.03;;;8.00;;
21769;SDS011;11046;49.558;8.674;2023-01-29T04:57:45;16.73;;;7.90;;
21769;SDS011;11046;49.558;8.674;2023-01-29T05:00:53;17.47;;;8.33;;
21769;SDS011;11046;49.558;8.674;2023-01-29T05:03:55;16.03;;;7.87;;
21769;SDS011;11046;49.558;8.674;2023-01-29T05:07:02;17.13;;;8.77;;
21769;SDS011;11046;49.558;8.674;2023-01-29T05:10:06;17.20;;;8.53;;
21769;SDS011;11046;49.558;8.674;2023-01-29T05:13:09;19.07;;;8.80;;
21769;SDS011;11046;49.558;8.674;2023-01-29T05:16:16;16.03;;;8.23;;
21769;SDS011;11046;49.558;8.674;2023-01-29T05:19:21;18.07;;;8.50;;
21769;SDS011;11046;49.558;8.674;2023-01-29T05:22:22;16.37;;;8.50;;
21769;SDS011;11046;49.558;8.674;2023-01-29T05:25:24;17.70;;;8.43;;
21769;SDS011;11046;49.558;8.674;2023-01-29T05:28:26;16.03;;;8.50;;
21769;SDS011;11046;49.558;8.674;2023-01-29T05:31:27;15.87;;;8.33;;
21769;SDS011;11046;49.558;8.674;2023-01-29T05:34:28;16.77;;;7.80;;
21769;SDS011;11046;49.558;8.674;2023-01-29T05:37:28;17.27;;;8.53;;
21769;SDS011;11046;49.558;8.674;2023-01-29T05:40:29;18.30;;;8.80;;
21769;SDS011;11046;49.558;8.674;2023-01-29T05:43:30;18.33;;;8.23;;
21769;SDS011;11046;49.558;8.674;2023-01-29T05:46:30;15.80;;;8.33;;
21769;SDS011;11046;49.558;8.674;2023-01-29T05:49:31;16.43;;;8.07;;
21769;SDS011;11046;49.558;8.674;2023-01-29T05:52:31;16.37;;;8.23;;
21769;SDS011;11046;49.558;8.674;2023-01-29T05:55:32;15.43;;;8.17;;
21769;SDS011;11046;49.558;8.674;2023-01-29T05:58:33;16.90;;;7.90;;
21769;SDS011;11046;49.558;8.674;2023-01-29T06:01:33;16.10;;;7.70;;
21769;SDS011;11046;49.558;8.674;2023-01-29T06:04:34;16.03;;;8.03;;
21769;SDS011;11046;49.558;8.674;2023-01-29T06:07:35;13.57;;;7.17;;
21769;SDS011;11046;49.558;8.674;2023-01-29T06:10:35;15.70;;;7.57;;
21769;SDS011;11046;49.558;8.674;2023-01-29T06:13:36;17.87;;;8.27;;
21769;SDS011;11046;49.558;8.674;2023-01-29T06:16:36;15.57;;;7.27;;
21769;SDS011;11046;49.558;8.674;2023-01-29T06:19:37;17.63;;;8.10;;
21769;SDS011;11046;49.558;8.674;2023-01-29T06:22:38;15.57;;;7.80;;
21769;SDS011;11046;49.558;8.674;2023-01-29T06:25:38;17.70;;;8.73;;
21769;SDS011;11046;49.558;8.674;2023-01-29T06:28:39;14.97;;;7.47;;
21769;SDS011;11046;49.558;8.674;2023-01-29T06:31:40;18.63;;;8.23;;
21769;SDS011;11046;49.558;8.674;2023-01-29T06:34:40;15.13;;;7.87;;
21769;SDS011;11046;49.558;8.674;2023-01-29T06:37:41;17.53;;;8.13;;
21769;SDS011;11046;49.558;8.674;2023-01-29T06:40:41;18.77;;;8.80;;
21769;SDS011;11046;49.558;8.674;2023-01-29T06:43:42;16.93;;;8.50;;
21769;SDS011;11046;49.558;8.674;2023-01-29T06:46:43;17.73;;;9.27;;
21769;SDS011;11046;49.558;8.674;2023-01-29T06:49:44;14.97;;;7.73;;
21769;SDS011;11046;49.558;8.674;2023-01-29T06:52:44;16.73;;;8.10;;
21769;SDS011;11046;49.558;8.674;2023-01-29T06:55:52;19.50;;;9.37;;
21769;SDS011;11046;49.558;8.674;2023-01-29T06:58:53;20.10;;;10.63;;
21769;SDS011;11046;49.558;8.674;2023-01-29T07:01:53;20.40;;;11.90;;
21769;SDS011;11046;49.558;8.674;2023-01-29T07:04:54;20.37;;;10.13;;
21769;SDS011;11046;49.558;8.674;2023-01-29T07:07:54;19.17;;;9.27;;
21769;SDS011;11046;49.558;8.674;2023-01-29T07:10:58;18.67;;;9.27;;
21769;SDS011;11046;49.558;8.674;2023-01-29T07:14:00;17.60;;;9.23;;
21769;SDS011;11046;49.558;8.674;2023-01-29T07:17:00;18.73;;;9.37;;
21769;SDS011;11046;49.558;8.674;2023-01-29T07:20:01;16.83;;;9.10;;
21769;SDS011;11046;49.558;8.674;2023-01-29T07:23:01;21.57;;;10.00;;
21769;SDS011;11046;49.558;8.674;2023-01-29T07:26:03;18.43;;;9.77;;
21769;SDS011;11046;49.558;8.674;2023-01-29T07:29:05;18.30;;;9.13;;
21769;SDS011;11046;49.558;8.674;2023-01-29T07:32:05;19.57;;;8.97;;
21769;SDS011;11046;49.558;8.674;2023-01-29T07:35:07;17.73;;;8.90;;
21769;SDS011;11046;49.558;8.674;2023-01-29T07:38:08;19.17;;;9.77;;
21769;SDS011;11046;49.558;8.674;2023-01-29T07:41:10;18.73;;;8.93;;
21769;SDS011;11046;49.558;8.674;2023-01-29T07:44:11;16.13;;;8.73;;
21769;SDS011;11046;49.558;8.674;2023-01-29T07:47:11;17.43;;;8.77;;
21769;SDS011;11046;49.558;8.674;2023-01-29T07:50:12;17.00;;;8.83;;
21769;SDS011;11046;49.558;8.674;2023-01-29T07:53:13;18.03;;;9.50;;
21769;SDS011;11046;49.558;8.674;2023-01-29T07:56:14;24.13;;;11.60;;
21769;SDS011;11046;49.558;8.674;2023-01-29T07:59:15;20.40;;;10.87;;
21769;SDS011;11046;49.558;8.674;2023-01-29T08:02:16;21.07;;;11.00;;
21769;SDS011;11046;49.558;8.674;2023-01-29T08:05:17;17.50;;;9.27;;
21769;SDS011;11046;49.558;8.674;2023-01-29T08:08:17;18.77;;;10.07;;
21769;SDS011;11046;49.558;8.674;2023-01-29T08:11:18;16.33;;;8.70;;
21769;SDS011;11046;49.558;8.674;2023-01-29T08:14:18;18.03;;;8.77;;
21769;SDS011;11046;49.558;8.674;2023-01-29T08:17:19;18.47;;;8.90;;
21769;SDS011;11046;49.558;8.674;2023-01-29T08:20:20;18.73;;;9.00;;
21769;SDS011;11046;49.558;8.674;2023-01-29T08:23:21;20.67;;;9.00;;
21769;SDS011;11046;49.558;8.674;2023-01-29T08:26:22;17.40;;;8.87;;
21769;SDS011;11046;49.558;8.674;2023-01-29T08:29:25;16.80;;;8.67;;
21769;SDS011;11046;49.558;8.674;2023-01-29T08:32:25;19.00;;;8.70;;
21769;SDS011;11046;49.558;8.674;2023-01-29T08:35:26;14.50;;;8.23;;
21769;SDS011;11046;49.558;8.674;2023-01-29T08:38:26;14.30;;;8.27;;
21769;SDS011;11046;49.558;8.674;2023-01-29T08:41:27;17.03;;;8.53;;
21769;SDS011;11046;49.558;8.674;2023-01-29T08:44:27;17.43;;;9.03;;
21769;SDS011;11046;49.558;8.674;2023-01-29T08:47:28;17.83;;;9.50;;
21769;SDS011;11046;49.558;8.674;2023-01-29T08:50:29;19.47;;;9.60;;
21769;SDS011;11046;49.558;8.674;2023-01-29T08:53:31;20.67;;;10.03;;
21769;SDS011;11046;49.558;8.674;2023-01-29T08:56:31;19.53;;;10.47;;
21769;SDS011;11046;49.558;8.674;2023-01-29T08:59:32;20.93;;;10.17;;
21769;SDS011;11046;49.558;8.674;2023-01-29T09:02:32;21.40;;;10.73;;
21769;SDS011;11046;49.558;8.674;2023-01-29T09:05:34;20.23;;;10.80;;
21769;SDS011;11046;49.558;8.674;2023-01-29T09:08:35;17.83;;;9.67;;
21769;SDS011;11046;49.558;8.674;2023-01-29T09:11:36;18.23;;;9.33;;
21769;SDS011;11046;49.558;8.674;2023-01-29T09:14:38;18.20;;;8.80;;
21769;SDS011;11046;49.558;8.674;2023-01-29T09:17:38;22.47;;;10.50;;
21769;SDS011;11046;49.558;8.674;2023-01-29T09:20:40;18.27;;;10.87;;
21769;SDS011;11046;49.558;8.674;2023-01-29T09:23:40;18.40;;;9.50;;
21769;SDS011;11046;49.558;8.674;2023-01-29T09:26:41;12.43;;;8.03;;
21769;SDS011;11046;49.558;8.674;2023-01-29T09:29:41;22.07;;;11.37;;
21769;SDS011;11046;49.558;8.674;2023-01-29T09:32:42;19.50;;;10.13;;
21769;SDS011;11046;49.558;8.674;2023-01-29T09:35:43;16.97;;;7.03;;
21769;SDS011;11046;49.558;8.674;2023-01-29T09:38:47;14.43;;;7.57;;
21769;SDS011;11046;49.558;8.674;2023-01-29T09:41:51;12.50;;;7.90;;
21769;SDS011;11046;49.558;8.674;2023-01-29T09:45:08;13.50;;;8.17;;
21769;SDS011;11046;49.558;8.674;2023-01-29T09:48:12;14.87;;;8.20;;
21769;SDS011;11046;49.558;8.674;2023-01-29T09:51:15;13.80;;;6.97;;
21769;SDS011;11046;49.558;8.674;2023-01-29T09:54:28;10.20;;;6.43;;
21769;SDS011;11046;49.558;8.674;2023-01-29T09:57:47;12.30;;;7.17;;
21769;SDS011;11046;49.558;8.674;2023-01-29T10:01:07;14.03;;;7.40;;
21769;SDS011;11046;49.558;8.674;2023-01-29T10:08:05;15.87;;;7.97;;
21769;SDS011;11046;49.558;8.674;2023-01-29T10:18:14;19.77;;;10.40;;
21769;SDS011;11046;49.558;8.674;2023-01-29T10:25:42;21.13;;;9.90;;
21769;SDS011;11046;49.558;8.674;2023-01-29T10:28:46;21.70;;;11.37;;
21769;SDS011;11046;49.558;8.674;2023-01-29T10:31:51;30.43;;;13.60;;
21769;SDS011;11046;49.558;8.674;2023-01-29T10:35:03;23.67;;;11.40;;
21769;SDS011;11046;49.558;8.674;2023-01-29T10:41:47;25.23;;;12.17;;
21769;SDS011;11046;49.558;8.674;2023-01-29T10:45:00;24.13;;;10.93;;
21769;SDS011;11046;49.558;8.674;2023-01-29T10:48:08;23.80;;;11.33;;
21769;SDS011;11046;49.558;8.674;2023-01-29T10:51:42;21.10;;;11.03;;
21769;SDS011;11046;49.558;8.674;2023-01-29T10:58:02;20.90;;;10.80;;
21769;SDS011;11046;49.558;8.674;2023-01-29T11:01:14;21.10;;;10.80;;
21769;SDS011;11046;49.558;8.674;2023-01-29T11:04:14;23.73;;;11.83;;
21769;SDS011;11046;49.558;8.674;2023-01-29T11:07:16;21.97;;;11.37;;
21769;SDS011;11046;49.558;8.674;2023-01-29T11:10:18;24.70;;;12.30;;
21769;SDS011;11046;49.558;8.674;2023-01-29T11:13:22;26.00;;;12.30;;
21769;SDS011;11046;49.558;8.674;2023-01-29T11:16:30;26.40;;;12.23;;
21769;SDS011;11046;49.558;8.674;2023-01-29T11:19:39;24.00;;;12.00;;
21769;SDS011;11046;49.558;8.674;2023-01-29T11:22:44;20.30;;;10.40;;
21769;SDS011;11046;49.558;8.674;2023-01-29T11:25:53;26.20;;;12.37;;
21769;SDS011;11046;49.558;8.674;2023-01-29T11:28:56;19.53;;;10.07;;
21769;SDS011;11046;49.558;8.674;2023-01-29T11:31:57;20.53;;;11.07;;
21769;SDS011;11046;49.558;8.674;2023-01-29T11:41:15;27.23;;;12.97;;
21769;SDS011;11046;49.558;8.674;2023-01-29T11:47:29;22.43;;;11.63;;
21769;SDS011;11046;49.558;8.674;2023-01-29T11:50:31;28.27;;;11.90;;
21769;SDS011;11046;49.558;8.674;2023-01-29T11:53:34;24.23;;;12.43;;
21769;SDS011;11046;49.558;8.674;2023-01-29T11:56:40;31.93;;;14.83;;
21769;SDS011;11046;49.558;8.674;2023-01-29T11:59:43;26.67;;;13.27;;
21769;SDS011;11046;49.558;8.674;2023-01-29T12:02:52;29.50;;;14.60;;
21769;SDS011;11046;49.558;8.674;2023-01-29T12:06:04;27.90;;;13.17;;
21769;SDS011;11046;49.558;8.674;2023-01-29T12:09:13;26.50;;;12.83;;
21769;SDS011;11046;49.558;8.674;2023-01-29T12:12:17;24.37;;;11.87;;
21769;SDS011;11046;49.558;8.674;2023-01-29T12:15:30;30.07;;;13.67;;
21769;SDS011;11046;49.558;8.674;2023-01-29T12:18:33;26.03;;;13.20;;
21769;SDS011;11046;49.558;8.674;2023-01-29T12:25:02;27.30;;;12.80;;
21769;SDS011;11046;49.558;8.674;2023-01-29T12:28:21;29.07;;;13.10;;
21769;SDS011;11046;49.558;8.674;2023-01-29T12:35:05;27.57;;;13.40;;
21769;SDS011;11046;49.558;8.674;2023-01-29T12:38:09;27.53;;;13.77;;
21769;SDS011;11046;49.558;8.674;2023-01-29T12:41:22;35.03;;;16.70;;
21769;SDS011;11046;49.558;8.674;2023-01-29T12:44:32;29.50;;;14.40;;
21769;SDS011;11046;49.558;8.674;2023-01-29T12:47:42;29.80;;;14.63;;
21769;SDS011;11046;49.558;8.674;2023-01-29T12:50:47;39.07;;;17.40;;
21769;SDS011;11046;49.558;8.674;2023-01-29T12:53:51;30.10;;;15.33;;
21769;SDS011;11046;49.558;8.674;2023-01-29T12:57:02;29.80;;;14.93;;
21769;SDS011;11046;49.558;8.674;2023-01-29T13:00:17;32.83;;;15.47;;
21769;SDS011;11046;49.558;8.674;2023-01-29T13:03:23;31.67;;;14.10;;
21769;SDS011;11046;49.558;8.674;2023-01-29T13:06:48;28.83;;;13.70;;
21769;SDS011;11046;49.558;8.674;2023-01-29T13:09:55;31.10;;;15.03;;
21769;SDS011;11046;49.558;8.674;2023-01-29T13:13:12;28.40;;;13.83;;
21769;SDS011;11046;49.558;8.674;2023-01-29T13:16:31;29.10;;;14.10;;
21769;SDS011;11046;49.558;8.674;2023-01-29T13:19:41;28.23;;;12.77;;
21769;SDS011;11046;49.558;8.674;2023-01-29T13:22:44;30.93;;;14.40;;
21769;SDS011;11046;49.558;8.674;2023-01-29T13:25:53;29.83;;;14.57;;
21769;SDS011;11046;49.558;8.674;2023-01-29T13:28:54;28.57;;;13.87;;
21769;SDS011;11046;49.558;8.674;2023-01-29T13:31:55;30.97;;;13.87;;
21769;SDS011;11046;49.558;8.674;2023-01-29T13:34:58;31.83;;;14.83;;
21769;SDS011;11046;49.558;8.674;2023-01-29T13:38:02;30.57;;;13.87;;
21769;SDS011;11046;49.558;8.674;2023-01-29T13:41:05;31.10;;;14.53;;
21769;SDS011;11046;49.558;8.674;2023-01-29T13:44:24;26.50;;;14.07;;
21769;SDS011;11046;49.558;8.674;2023-01-29T13:47:38;28.10;;;13.23;;
21769;SDS011;11046;49.558;8.674;2023-01-29T13:50:40;26.73;;;13.67;;
21769;SDS011;11046;49.558;8.674;2023-01-29T13:53:42;28.33;;;14.23;;
21769;SDS011;11046;49.558;8.674;2023-01-29T13:59:54;26.63;;;13.10;;
21769;SDS011;11046;49.558;8.674;2023-01-29T14:06:04;29.53;;;12.43;;
21769;SDS011;11046;49.558;8.674;2023-01-29T14:09:27;29.73;;;13.17;;
21769;SDS011;11046;49.558;8.674;2023-01-29T14:12:33;35.73;;;14.07;;
21769;SDS011;11046;49.558;8.674;2023-01-29T14:15:37;30.80;;;14.33;;
21769;SDS011;11046;49.558;8.674;2023-01-29T14:18:47;28.10;;;13.23;;
21769;SDS011;11046;49.558;8.674;2023-01-29T14:21:52;28.37;;;12.43;;
21769;SDS011;11046;49.558;8.674;2023-01-29T14:24:53;30.33;;;13.13;;
21769;SDS011;11046;49.558;8.674;2023-01-29T14:28:12;38.93;;;14.40;;
21769;SDS011;11046;49.558;8.674;2023-01-29T14:31:40;25.73;;;12.80;;
21769;SDS011;11046;49.558;8.674;2023-01-29T14:35:15;29.93;;;14.17;;
21769;SDS011;11046;49.558;8.674;2023-01-29T14:38:22;34.00;;;13.73;;
21769;SDS011;11046;49.558;8.674;2023-01-29T14:41:31;26.30;;;13.30;;
21769;SDS011;11046;49.558;8.674;2023-01-29T14:47:53;28.17;;;13.47;;
21769;SDS011;11046;49.558;8.674;2023-01-29T14:50:57;26.80;;;12.97;;
21769;SDS011;11046;49.558;8.674;2023-01-29T14:54:25;23.50;;;11.90;;
21769;SDS011;11046;49.558;8.674;2023-01-29T14:57:27;27.47;;;12.63;;
21769;SDS011;11046;49.558;8.674;2023-01-29T15:00:30;29.20;;;12.87;;
21769;SDS011;11046;49.558;8.674;2023-01-29T15:07:01;26.50;;;12.77;;
21769;SDS011;11046;49.558;8.674;2023-01-29T15:10:18;28.17;;;13.83;;
21769;SDS011;11046;49.558;8.674;2023-01-29T15:13:34;29.10;;;14.10;;
21769;SDS011;11046;49.558;8.674;2023-01-29T15:23:30;28.47;;;11.80;;
21769;SDS011;11046;49.558;8.674;2023-01-29T15:26:32;26.50;;;11.83;;
21769;SDS011;11046;49.558;8.674;2023-01-29T15:29:35;29.63;;;12.70;;
21769;SDS011;11046;49.558;8.674;2023-01-29T15:32:38;26.90;;;12.53;;
21769;SDS011;11046;49.558;8.674;2023-01-29T15:35:39;26.57;;;12.77;;
21769;SDS011;11046;49.558;8.674;2023-01-29T15:38:41;30.33;;;13.73;;
21769;SDS011;11046;49.558;8.674;2023-01-29T15:41:42;26.30;;;13.13;;
21769;SDS011;11046;49.558;8.674;2023-01-29T15:44:44;26.40;;;12.60;;
21769;SDS011;11046;49.558;8.674;2023-01-29T15:47:45;27.70;;;12.23;;
21769;SDS011;11046;49.558;8.674;2023-01-29T15:50:46;34.53;;;15.57;;
21769;SDS011;11046;49.558;8.674;2023-01-29T15:53:49;30.67;;;15.13;;
21769;SDS011;11046;49.558;8.674;2023-01-29T15:56:53;32.13;;;13.40;;
21769;SDS011;11046;49.558;8.674;2023-01-29T15:59:55;29.37;;;13.50;;
21769;SDS011;11046;49.558;8.674;2023-01-29T16:02:57;28.43;;;13.47;;
21769;SDS011;11046;49.558;8.674;2023-01-29T16:06:01;26.93;;;13.67;;
21769;SDS011;11046;49.558;8.674;2023-01-29T16:09:02;31.03;;;13.67;;
21769;SDS011;11046;49.558;8.674;2023-01-29T16:12:04;30.67;;;14.67;;
21769;SDS011;11046;49.558;8.674;2023-01-29T16:15:05;36.33;;;15.63;;
21769;SDS011;11046;49.558;8.674;2023-01-29T16:18:20;32.67;;;16.13;;
21769;SDS011;11046;49.558;8.674;2023-01-29T16:21:25;35.30;;;15.73;;
21769;SDS011;11046;49.558;8.674;2023-01-29T16:24:30;31.77;;;15.07;;
21769;SDS011;11046;49.558;8.674;2023-01-29T16:27:33;35.77;;;15.73;;
21769;SDS011;11046;49.558;8.674;2023-01-29T16:30:34;33.03;;;14.70;;
21769;SDS011;11046;49.558;8.674;2023-01-29T16:33:37;30.53;;;13.60;;
21769;SDS011;11046;49.558;8.674;2023-01-29T16:36:44;33.40;;;14.50;;
21769;SDS011;11046;49.558;8.674;2023-01-29T16:39:47;32.40;;;14.07;;
21769;SDS011;11046;49.558;8.674;2023-01-29T16:42:49;28.30;;;13.80;;
21769;SDS011;11046;49.558;8.674;2023-01-29T16:46:31;38.23;;;17.57;;
21769;SDS011;11046;49.558;8.674;2023-01-29T16:52:36;57.87;;;31.67;;
21769;SDS011;11046;49.558;8.674;2023-01-29T16:55:38;34.87;;;16.97;;
21769;SDS011;11046;49.558;8.674;2023-01-29T16:58:40;30.07;;;14.40;;
21769;SDS011;11046;49.558;8.674;2023-01-29T17:01:47;28.43;;;13.47;;
21769;SDS011;11046;49.558;8.674;2023-01-29T17:04:49;28.67;;;13.43;;
21769;SDS011;11046;49.558;8.674;2023-01-29T17:07:54;37.47;;;17.17;;
21769;SDS011;11046;49.558;8.674;2023-01-29T17:10:56;35.57;;;14.07;;
21769;SDS011;11046;49.558;8.674;2023-01-29T17:13:57;28.93;;;13.50;;
21769;SDS011;11046;49.558;8.674;2023-01-29T17:17:06;30.40;;;16.10;;
21769;SDS011;11046;49.558;8.674;2023-01-29T17:20:14;28.53;;;13.83;;
21769;SDS011;11046;49.558;8.674;2023-01-29T17:23:15;30.40;;;14.80;;
21769;SDS011;11046;49.558;8.674;2023-01-29T17:26:16;39.93;;;22.23;;
21769;SDS011;11046;49.558;8.674;2023-01-29T17:29:18;28.80;;;14.37;;
21769;SDS011;11046;49.558;8.674;2023-01-29T17:32:23;30.77;;;15.37;;
21769;SDS011;11046;49.558;8.674;2023-01-29T17:35:26;29.83;;;13.80;;
21769;SDS011;11046;49.558;8.674;2023-01-29T17:38:27;28.33;;;12.63;;
21769;SDS011;11046;49.558;8.674;2023-01-29T17:41:28;27.30;;;12.47;;
21769;SDS011;11046;49.558;8.674;2023-01-29T17:44:30;44.93;;;18.57;;
21769;SDS011;11046;49.558;8.674;2023-01-29T17:47:30;55.60;;;23.73;;
21769;SDS011;11046;49.558;8.674;2023-01-29T17:50:31;49.47;;;20.80;;
21769;SDS011;11046;49.558;8.674;2023-01-29T17:53:34;32.73;;;15.13;;
21769;SDS011;11046;49.558;8.674;2023-01-29T17:56:34;33.80;;;15.63;;
21769;SDS011;11046;49.558;8.674;2023-01-29T17:59:35;33.03;;;15.13;;
21769;SDS011;11046;49.558;8.674;2023-01-29T18:02:36;35.23;;;14.60;;
21769;SDS011;11046;49.558;8.674;2023-01-29T18:05:37;30.30;;;14.83;;
21769;SDS011;11046;49.558;8.674;2023-01-29T18:08:41;31.77;;;14.93;;
21769;SDS011;11046;49.558;8.674;2023-01-29T18:11:45;34.37;;;15.63;;
21769;SDS011;11046;49.558;8.674;2023-01-29T18:14:46;30.07;;;14.53;;
21769;SDS011;11046;49.558;8.674;2023-01-29T18:17:47;41.17;;;18.30;;
21769;SDS011;11046;49.558;8.674;2023-01-29T18:20:48;42.53;;;20.77;;
21769;SDS011;11046;49.558;8.674;2023-01-29T18:23:49;42.37;;;19.80;;
21769;SDS011;11046;49.558;8.674;2023-01-29T18:26:49;71.03;;;29.07;;
21769;SDS011;11046;49.558;8.674;2023-01-29T18:29:50;51.97;;;21.73;;
21769;SDS011;11046;49.558;8.674;2023-01-29T18:32:50;37.27;;;18.10;;
21769;SDS011;11046;49.558;8.674;2023-01-29T18:35:52;41.13;;;19.57;;
21769;SDS011;11046;49.558;8.674;2023-01-29T18:38:55;41.30;;;19.37;;
21769;SDS011;11046;49.558;8.674;2023-01-29T18:41:56;41.70;;;19.87;;
21769;SDS011;11046;49.558;8.674;2023-01-29T18:44:57;39.93;;;20.20;;
21769;SDS011;11046;49.558;8.674;2023-01-29T18:47:58;38.73;;;18.33;;
21769;SDS011;11046;49.558;8.674;2023-01-29T18:50:59;44.10;;;18.53;;
21769;SDS011;11046;49.558;8.674;2023-01-29T18:53:59;45.67;;;20.83;;
21769;SDS011;11046;49.558;8.674;2023-01-29T18:57:00;45.70;;;20.47;;
21769;SDS011;11046;49.558;8.674;2023-01-29T19:00:00;50.63;;;22.73;;
21769;SDS011;11046;49.558;8.674;2023-01-29T19:03:01;49.40;;;22.53;;
21769;SDS011;11046;49.558;8.674;2023-01-29T19:06:03;49.57;;;21.47;;
21769;SDS011;11046;49.558;8.674;2023-01-29T19:09:06;47.27;;;20.20;;
21769;SDS011;11046;49.558;8.674;2023-01-29T19:12:06;42.40;;;18.73;;
21769;SDS011;11046;49.558;8.674;2023-01-29T19:15:08;40.13;;;19.60;;
21769;SDS011;11046;49.558;8.674;2023-01-29T19:18:09;42.67;;;18.57;;
21769;SDS011;11046;49.558;8.674;2023-01-29T19:21:13;42.93;;;18.50;;
21769;SDS011;11046;49.558;8.674;2023-01-29T19:24:15;43.50;;;18.10;;
21769;SDS011;11046;49.558;8.674;2023-01-29T19:27:15;39.83;;;17.97;;
21769;SDS011;11046;49.558;8.674;2023-01-29T19:30:16;36.67;;;17.87;;